Time;durP1;ratioP1;P1;durP2;ratioP2;P2;SDS_P1;SDS_P2;PMS_P1;PMS_P2;Temp;Humidity;BMP_temperature;BMP_pressure;BME280_temperature;BME280_humidity;BME280_pressure;Samples;Min_cycle;Max_cycle;Signal;HPM_P1;HPM_P2
2022/10/24 00:00:11;;;;;;;11.07;2.78;;;18.60;78.60;;;;;;5039753;28;20029;-68
2022/10/24 00:02:37;;;;;;;8.55;2.15;;;18.60;77.40;;;;;;5052730;28;20513;-68
2022/10/24 00:05:03;;;;;;;10.23;2.28;;;18.60;77.40;;;;;;5058425;28;20047;-68
2022/10/24 00:07:28;;;;;;;9.25;2.58;;;18.60;78.00;;;;;;5058307;28;20520;-68
2022/10/24 00:09:54;;;;;;;11.35;1.90;;;18.70;77.20;;;;;;5056037;28;20025;-67
2022/10/24 00:12:19;;;;;;;9.23;2.60;;;18.70;77.30;;;;;;5059114;28;20040;-68
2022/10/24 00:14:50;;;;;;;10.13;2.65;;;18.70;77.20;;;;;;5057213;28;20027;-68
2022/10/24 00:17:16;;;;;;;8.68;2.05;;;18.60;77.40;;;;;;5058125;28;20021;-68
2022/10/24 00:19:42;;;;;;;8.90;1.92;;;18.60;77.70;;;;;;5056528;28;20021;-68
2022/10/24 00:22:07;;;;;;;9.13;1.80;;;18.50;78.40;;;;;;5058816;28;20060;-68
2022/10/24 00:24:35;;;;;;;9.80;1.98;;;18.20;80.40;;;;;;5056914;28;20017;-68
2022/10/24 00:27:01;;;;;;;8.95;2.00;;;17.80;82.30;;;;;;5057308;28;20025;-68
2022/10/24 00:29:27;;;;;;;10.10;2.38;;;17.50;83.70;;;;;;5054298;28;20104;-67
2022/10/24 00:31:53;;;;;;;10.00;2.30;;;17.20;84.90;;;;;;5058871;28;20032;-68
2022/10/24 00:34:19;;;;;;;9.07;2.08;;;17.00;85.90;;;;;;5057830;28;20036;-68
2022/10/24 00:36:44;;;;;;;11.70;1.90;;;16.90;86.60;;;;;;5056332;28;20033;-68
2022/10/24 00:39:16;;;;;;;11.88;2.00;;;16.80;87.20;;;;;;5056997;28;20088;-67
2022/10/24 00:41:42;;;;;;;14.63;2.00;;;16.80;87.70;;;;;;5057388;28;20039;-67
2022/10/24 00:44:29;;;;;;;9.30;2.50;;;16.70;88.10;;;;;;5055117;28;20033;-69
2022/10/24 00:47:04;;;;;;;10.88;2.00;;;16.60;88.90;;;;;;5057496;28;20079;-68
2022/10/24 00:49:47;;;;;;;10.35;2.50;;;16.50;90.20;;;;;;5057462;28;20028;-68
2022/10/24 00:52:16;;;;;;;14.13;2.22;;;16.30;90.90;;;;;;5057088;28;20107;-68
2022/10/24 00:54:42;;;;;;;9.70;2.08;;;16.20;91.20;;;;;;5056962;28;20048;-67
2022/10/24 00:57:24;;;;;;;14.45;2.22;;;16.20;91.50;;;;;;5055646;28;20033;-68
2022/10/24 00:59:55;;;;;;;7.80;2.13;;;16.20;91.60;;;;;;5056268;28;20024;-68
2022/10/24 01:02:21;;;;;;;7.82;2.03;;;16.20;92.20;;;;;;5058007;28;20041;-68
2022/10/24 01:04:47;;;;;;;12.10;2.28;;;16.10;92.70;;;;;;5057088;28;20033;-68
2022/10/24 01:07:25;;;;;;;12.63;2.08;;;15.90;93.20;;;;;;5059487;28;20068;-67
2022/10/24 01:10:19;;;;;;;13.65;2.83;;;15.80;93.60;;;;;;5059354;28;20387;-67
2022/10/24 01:13:09;;;;;;;8.82;2.25;;;15.80;94.30;;;;;;5063390;28;20084;-68
2022/10/24 01:15:50;;;;;;;12.90;2.70;;;15.80;94.20;;;;;;5071332;28;20448;-68
2022/10/24 01:18:31;;;;;;;8.13;1.90;;;15.90;93.80;;;;;;5056270;28;20036;-68
2022/10/24 01:21:29;;;;;;;8.77;2.15;;;15.90;94.00;;;;;;5049052;28;20029;-67
2022/10/24 01:24:21;;;;;;;14.60;2.15;;;15.90;93.90;;;;;;5055146;28;20425;-67
2022/10/24 01:27:01;;;;;;;9.23;2.30;;;15.90;94.10;;;;;;5047448;28;20064;-67
2022/10/24 01:29:48;;;;;;;14.98;2.38;;;15.90;94.70;;;;;;5062407;28;20021;-67
2022/10/24 01:32:19;;;;;;;9.00;2.33;;;15.70;95.70;;;;;;5056742;28;20037;-68
2022/10/24 01:34:58;;;;;;;11.38;2.20;;;15.50;96.80;;;;;;5054622;28;20074;-68
2022/10/24 01:38:28;;;;;;;14.43;2.90;;;15.40;96.80;;;;;;5059823;28;20082;-69
2022/10/24 01:40:59;;;;;;;14.55;3.13;;;15.50;96.40;;;;;;4950999;29;20046;-69
2022/10/24 01:43:29;;;;;;;11.80;3.20;;;15.40;97.50;;;;;;4954894;28;20117;-70
2022/10/24 01:46:03;;;;;;;16.35;3.22;;;15.20;97.40;;;;;;5008260;28;20037;-70
2022/10/24 01:48:33;;;;;;;12.48;3.45;;;14.90;98.00;;;;;;5053748;28;20025;-69
2022/10/24 01:51:01;;;;;;;11.88;2.80;;;14.80;98.00;;;;;;5055712;28;20036;-69
2022/10/24 01:53:28;;;;;;;14.93;3.70;;;14.70;98.00;;;;;;5055107;28;20032;-69
2022/10/24 01:55:55;;;;;;;18.58;3.53;;;14.60;97.70;;;;;;5062905;28;20074;-69
2022/10/24 01:58:21;;;;;;;20.98;3.78;;;14.70;98.00;;;;;;5051807;28;20325;-69
2022/10/24 02:00:49;;;;;;;14.70;3.83;;;14.80;98.00;;;;;;5054763;28;20052;-69
2022/10/24 02:03:15;;;;;;;18.27;3.67;;;14.90;98.00;;;;;;5054653;28;20049;-70
2022/10/24 02:05:48;;;;;;;15.88;4.65;;;15.10;97.50;;;;;;5055591;28;20027;-69
2022/10/24 02:08:18;;;;;;;12.52;3.13;;;14.80;97.70;;;;;;5055221;28;20033;-69
2022/10/24 02:10:49;;;;;;;9.88;3.10;;;14.60;97.60;;;;;;5054813;28;20033;-69
2022/10/24 02:13:31;;;;;;;12.02;3.63;;;14.50;98.00;;;;;;5053311;28;20051;-69
2022/10/24 02:15:59;;;;;;;15.57;3.88;;;14.50;98.00;;;;;;5055918;28;20025;-68
2022/10/24 02:18:27;;;;;;;22.40;4.93;;;14.50;97.80;;;;;;5053732;28;20033;-69
2022/10/24 02:21:04;;;;;;;13.18;2.80;;;14.50;98.00;;;;;;5054750;28;20058;-68
2022/10/24 02:23:46;;;;;;;10.45;3.00;;;14.60;98.00;;;;;;5054400;28;20469;-69
2022/10/24 02:26:33;;;;;;;13.25;3.78;;;14.50;98.00;;;;;;5053583;28;20491;-69
2022/10/24 02:29:07;;;;;;;11.75;3.50;;;14.40;97.10;;;;;;5055712;28;20032;-68
2022/10/24 02:31:41;;;;;;;11.30;3.13;;;14.40;97.30;;;;;;5053321;28;20040;-68
2022/10/24 02:34:08;;;;;;;;;;;14.30;97.50;;;;;;5059035;28;20033;-68
2022/10/24 02:36:36;;;;;;;13.43;3.42;;;14.30;96.50;;;;;;5037164;28;19909;-68
2022/10/24 02:39:04;;;;;;;15.45;3.47;;;14.20;94.70;;;;;;5054956;28;20037;-68
2022/10/24 02:41:34;;;;;;;13.18;3.65;;;14.20;96.00;;;;;;5057900;28;20329;-68
2022/10/24 02:44:02;;;;;;;13.90;3.97;;;14.20;95.60;;;;;;5053990;28;20048;-68
2022/10/24 02:46:29;;;;;;;18.90;3.30;;;14.20;95.50;;;;;;5042718;28;20104;-68
2022/10/24 02:49:00;;;;;;;12.07;3.22;;;14.30;98.00;;;;;;5054598;28;20021;-68
2022/10/24 02:51:30;;;;;;;18.55;3.67;;;14.60;98.00;;;;;;5052425;28;20036;-68
2022/10/24 02:53:58;;;;;;;12.35;2.92;;;14.70;98.00;;;;;;5054009;28;20359;-68
2022/10/24 02:56:23;;;;;;;10.82;3.15;;;14.70;98.00;;;;;;5052940;28;20071;-68
2022/10/24 02:58:49;;;;;;;14.90;3.00;;;14.80;98.00;;;;;;5038185;28;20098;-69
2022/10/24 03:01:15;;;;;;;10.70;2.55;;;15.00;98.00;;;;;;5054095;28;20035;-68
2022/10/24 03:03:40;;;;;;;11.23;2.70;;;15.20;98.00;;;;;;5052009;28;20100;-68
2022/10/24 03:06:06;;;;;;;12.23;2.95;;;15.40;97.80;;;;;;5054399;28;20057;-68
2022/10/24 03:08:34;;;;;;;13.00;2.63;;;15.50;97.70;;;;;;5053742;28;20025;-68
2022/10/24 03:11:00;;;;;;;14.05;2.95;;;15.60;97.30;;;;;;5052262;28;20105;-68
2022/10/24 03:13:26;;;;;;;12.60;3.25;;;15.50;97.90;;;;;;5053611;28;20111;-68
2022/10/24 03:15:51;;;;;;;12.55;3.13;;;15.50;97.90;;;;;;5053841;28;20063;-69
2022/10/24 03:18:17;;;;;;;13.38;2.92;;;15.60;97.60;;;;;;5052599;28;20028;-67
2022/10/24 03:20:43;;;;;;;14.93;3.80;;;15.70;96.80;;;;;;5053737;28;20487;-68
2022/10/24 03:23:09;;;;;;;12.98;2.63;;;15.80;96.60;;;;;;5055104;28;20031;-68
2022/10/24 03:25:34;;;;;;;13.13;2.85;;;15.90;95.80;;;;;;5051654;28;20406;-69
2022/10/24 03:28:00;;;;;;;12.30;3.10;;;16.00;95.80;;;;;;5055195;28;20473;-68
2022/10/24 03:30:29;;;;;;;13.57;2.95;;;16.10;95.20;;;;;;5055533;28;20109;-68
2022/10/24 03:32:54;;;;;;;15.20;3.33;;;16.10;95.10;;;;;;5044630;28;20017;-67
2022/10/24 03:35:20;;;;;;;17.45;3.55;;;16.20;95.10;;;;;;5054203;28;20099;-67
2022/10/24 03:37:46;;;;;;;10.80;3.08;;;16.20;94.80;;;;;;5050616;28;20037;-67
2022/10/24 03:40:12;;;;;;;9.95;2.60;;;16.20;94.20;;;;;;5052327;28;20021;-68
2022/10/24 03:42:38;;;;;;;10.85;3.25;;;16.30;93.70;;;;;;5051266;28;20436;-68
2022/10/24 03:45:04;;;;;;;9.82;2.70;;;16.30;94.30;;;;;;5053280;28;20250;-68
2022/10/24 03:47:32;;;;;;;11.27;2.60;;;16.20;94.60;;;;;;5052552;28;20044;-68
2022/10/24 03:49:58;;;;;;;13.68;3.13;;;16.10;94.30;;;;;;5053381;28;20033;-67
2022/10/24 03:52:25;;;;;;;10.68;2.45;;;16.10;94.80;;;;;;5050214;28;20413;-68
2022/10/24 03:54:50;;;;;;;13.15;2.67;;;16.00;95.40;;;;;;5039115;28;20030;-67
2022/10/24 03:57:16;;;;;;;9.98;2.60;;;16.10;94.90;;;;;;5051120;28;20041;-68
2022/10/24 03:59:41;;;;;;;13.43;3.20;;;16.00;95.20;;;;;;5054320;28;20036;-68
2022/10/24 04:02:07;;;;;;;13.63;3.85;;;16.00;95.50;;;;;;5050978;28;20287;-68
2022/10/24 04:04:33;;;;;;;13.63;3.50;;;15.90;95.70;;;;;;5074723;28;20091;-68
2022/10/24 04:06:59;;;;;;;12.93;2.70;;;15.90;95.70;;;;;;5047976;28;20021;-68
2022/10/24 04:09:25;;;;;;;18.05;3.75;;;15.90;96.00;;;;;;5053581;28;20025;-68
2022/10/24 04:11:52;;;;;;;13.88;3.03;;;15.90;95.10;;;;;;5051322;28;20040;-68
2022/10/24 04:14:19;;;;;;;16.33;3.47;;;16.00;95.30;;;;;;5035539;28;20033;-68
2022/10/24 04:16:45;;;;;;;19.00;3.10;;;16.00;95.00;;;;;;5051335;28;20053;-67
2022/10/24 04:19:16;;;;;;;12.98;2.80;;;16.00;94.60;;;;;;5052500;28;20063;-67
2022/10/24 04:21:42;;;;;;;10.35;3.03;;;16.10;94.80;;;;;;5051840;28;20029;-67
2022/10/24 04:24:09;;;;;;;13.02;2.78;;;16.20;94.30;;;;;;5057131;28;20033;-67
2022/10/24 04:26:34;;;;;;;11.00;2.60;;;16.20;94.00;;;;;;5053967;28;20021;-69
2022/10/24 04:29:00;;;;;;;16.85;2.88;;;16.20;93.70;;;;;;5058780;28;20013;-68
2022/10/24 04:31:26;;;;;;;11.57;2.63;;;16.30;93.10;;;;;;5060764;28;20032;-68
2022/10/24 04:33:51;;;;;;;13.02;2.90;;;16.30;92.80;;;;;;5057700;28;20357;-68
2022/10/24 04:36:20;;;;;;;12.77;2.58;;;16.30;92.90;;;;;;5056995;28;20037;-68
2022/10/24 04:38:49;;;;;;;11.80;2.63;;;16.30;92.50;;;;;;5050978;28;20383;-68
2022/10/24 04:41:14;;;;;;;12.02;2.25;;;16.30;92.30;;;;;;5056390;28;20068;-68
2022/10/24 04:43:40;;;;;;;10.13;2.40;;;16.40;92.40;;;;;;5055422;28;20048;-68
2022/10/24 04:46:06;;;;;;;7.97;2.03;;;16.40;92.10;;;;;;5057801;28;20075;-68
2022/10/24 04:48:32;;;;;;;12.80;2.45;;;16.40;92.30;;;;;;5057059;28;20017;-68
2022/10/24 04:50:58;;;;;;;11.73;2.58;;;16.40;92.20;;;;;;5055939;28;20047;-68
2022/10/24 04:53:23;;;;;;;10.98;2.60;;;16.40;92.10;;;;;;5059695;28;20322;-68
2022/10/24 04:55:49;;;;;;;9.43;2.65;;;16.30;93.00;;;;;;5055336;28;20361;-68
2022/10/24 04:58:15;;;;;;;13.10;2.88;;;16.20;93.80;;;;;;5077087;28;20028;-68
2022/10/24 05:00:45;;;;;;;12.32;2.53;;;16.10;93.60;;;;;;5066185;28;20033;-68
2022/10/24 05:03:11;;;;;;;7.07;2.22;;;16.00;93.90;;;;;;5051354;28;20167;-68
2022/10/24 05:05:39;;;;;;;6.47;2.17;;;16.10;93.30;;;;;;5055312;28;20100;-68
2022/10/24 05:08:08;;;;;;;9.30;2.42;;;16.00;94.60;;;;;;5056735;28;20021;-69
2022/10/24 05:10:33;;;;;;;9.18;2.20;;;15.60;96.10;;;;;;5052879;28;20035;-68
2022/10/24 05:13:02;;;;;;;14.23;2.40;;;15.20;97.40;;;;;;5056874;28;20021;-69
2022/10/24 05:15:28;;;;;;;9.57;2.10;;;14.90;97.80;;;;;;5056114;28;20446;-68
2022/10/24 05:17:55;;;;;;;10.18;2.75;;;14.70;98.00;;;;;;5056991;28;20303;-68
2022/10/24 05:20:21;;;;;;;10.57;2.70;;;14.70;98.00;;;;;;5056212;28;20035;-68
2022/10/24 05:22:49;;;;;;;13.13;4.38;;;14.80;98.00;;;;;;5056931;28;20107;-69
2022/10/24 05:25:15;;;;;;;12.25;5.93;;;14.80;98.00;;;;;;5056316;28;20032;-68
2022/10/24 05:27:41;;;;;;;13.40;6.25;;;14.80;98.00;;;;;;5057204;28;20321;-69
2022/10/24 05:30:10;;;;;;;29.45;15.65;;;14.80;98.00;;;;;;5055823;28;20123;-68
2022/10/24 05:32:36;;;;;;;14.50;6.78;;;14.90;97.90;;;;;;5055202;28;20095;-68
2022/10/24 05:35:02;;;;;;;217.70;112.85;;;14.90;97.50;;;;;;5057283;28;20404;-67
2022/10/24 05:37:28;;;;;;;10.63;4.53;;;15.00;97.50;;;;;;5053478;28;20419;-68
2022/10/24 05:39:53;;;;;;;8.13;3.05;;;15.20;96.60;;;;;;5053649;28;20033;-68
2022/10/24 05:42:22;;;;;;;9.75;3.63;;;15.40;95.50;;;;;;5054603;28;20108;-68
2022/10/24 05:44:47;;;;;;;7.35;2.28;;;15.50;95.80;;;;;;5054692;28;20032;-68
2022/10/24 05:47:13;;;;;;;10.98;2.53;;;15.60;94.20;;;;;;5056895;28;20562;-68
2022/10/24 05:49:42;;;;;;;9.57;2.88;;;15.70;94.70;;;;;;5056358;28;20105;-69
2022/10/24 05:52:07;;;;;;;6.65;1.83;;;15.70;93.90;;;;;;5056414;28;20028;-68
2022/10/24 05:54:33;;;;;;;9.55;2.40;;;15.90;93.30;;;;;;5057373;28;20167;-68
2022/10/24 05:56:59;;;;;;;8.63;2.10;;;15.90;93.10;;;;;;5053115;28;20485;-68
2022/10/24 05:59:26;;;;;;;6.72;2.28;;;16.00;93.10;;;;;;5064080;28;20045;-68
2022/10/24 06:01:53;;;;;;;7.93;2.50;;;16.00;92.90;;;;;;5057580;28;20408;-68
2022/10/24 06:04:19;;;;;;;11.18;2.70;;;16.00;92.60;;;;;;5064596;28;20025;-68
2022/10/24 06:06:47;;;;;;;11.52;2.55;;;16.10;92.10;;;;;;5056842;28;20522;-68
2022/10/24 06:09:13;;;;;;;9.82;2.95;;;16.10;92.70;;;;;;5053872;28;20043;-68
2022/10/24 06:11:39;;;;;;;5.97;1.88;;;16.10;93.10;;;;;;5053783;28;20111;-67
2022/10/24 06:14:05;;;;;;;8.70;2.33;;;16.00;92.80;;;;;;5055836;28;20025;-67
2022/10/24 06:16:32;;;;;;;12.90;1.80;;;16.00;92.50;;;;;;5053557;28;20321;-68
2022/10/24 06:18:58;;;;;;;7.35;2.10;;;16.10;92.30;;;;;;5050623;28;20053;-68
2022/10/24 06:21:24;;;;;;;6.45;1.77;;;16.10;92.90;;;;;;5054951;28;20079;-69
2022/10/24 06:23:50;;;;;;;7.93;1.95;;;15.90;94.00;;;;;;5056001;28;20078;-68
2022/10/24 06:26:16;;;;;;;6.65;1.98;;;15.50;95.70;;;;;;5054540;28;20027;-68
2022/10/24 06:28:41;;;;;;;8.68;1.98;;;15.30;95.50;;;;;;5055803;28;20033;-68
2022/10/24 06:31:08;;;;;;;6.18;1.65;;;15.40;95.00;;;;;;5056300;28;20451;-69
2022/10/24 06:33:34;;;;;;;6.97;1.90;;;15.40;95.00;;;;;;5053415;28;20017;-69
2022/10/24 06:36:04;;;;;;;7.85;1.60;;;15.20;96.40;;;;;;5056612;28;20036;-68
2022/10/24 06:38:31;;;;;;;7.78;2.08;;;14.90;96.60;;;;;;5055740;28;20025;-68
2022/10/24 06:40:56;;;;;;;7.90;1.52;;;14.60;97.40;;;;;;5054975;28;20048;-69
2022/10/24 06:43:22;;;;;;;5.68;1.42;;;14.30;97.80;;;;;;5054919;28;20017;-68
2022/10/24 06:45:48;;;;;;;6.70;1.75;;;14.30;97.60;;;;;;5055699;28;20021;-67
2022/10/24 06:48:14;;;;;;;11.45;2.20;;;14.20;98.00;;;;;;5054434;28;20029;-68
2022/10/24 06:50:39;;;;;;;10.10;1.80;;;14.20;98.00;;;;;;5055912;28;20033;-68
2022/10/24 06:53:09;;;;;;;21.70;3.45;;;14.20;98.00;;;;;;5054851;28;20036;-68
2022/10/24 06:55:38;;;;;;;11.25;2.45;;;14.20;98.00;;;;;;5053139;28;20029;-68
2022/10/24 06:58:05;;;;;;;14.40;2.65;;;14.20;98.00;;;;;;5053400;28;20310;-69
2022/10/24 07:00:32;;;;;;;9.80;1.80;;;14.30;98.00;;;;;;5056035;28;20083;-67
2022/10/24 07:02:58;;;;;;;6.40;2.50;;;14.60;97.80;;;;;;5014476;28;20053;-68
2022/10/24 07:05:24;;;;;;;11.35;1.77;;;14.80;97.50;;;;;;5023700;28;20037;-68
2022/10/24 07:07:49;;;;;;;19.88;2.40;;;14.80;97.10;;;;;;5035068;28;20097;-68
2022/10/24 07:10:15;;;;;;;23.40;2.80;;;14.90;97.70;;;;;;5033800;28;20033;-67
2022/10/24 07:12:44;;;;;;;6.82;2.17;;;15.00;97.50;;;;;;5034801;28;20025;-67
2022/10/24 07:15:10;;;;;;;9.18;1.80;;;15.00;97.80;;;;;;5035256;28;20029;-66
2022/10/24 07:17:40;;;;;;;13.00;2.95;;;15.00;98.00;;;;;;5035060;28;20041;-68
2022/10/24 07:20:07;;;;;;;8.55;1.80;;;14.90;98.00;;;;;;5035142;28;20053;-66
2022/10/24 07:22:33;;;;;;;13.48;2.33;;;14.70;98.00;;;;;;5034943;28;20022;-67
2022/10/24 07:24:59;;;;;;;6.18;1.60;;;14.70;98.00;;;;;;5033881;28;20372;-68
2022/10/24 07:27:25;;;;;;;8.80;1.77;;;14.80;98.00;;;;;;5035096;28;20060;-68
2022/10/24 07:29:51;;;;;;;15.57;2.60;;;14.90;98.00;;;;;;5035099;28;20030;-68
2022/10/24 07:32:17;;;;;;;20.67;2.20;;;15.00;98.00;;;;;;5036037;28;20092;-68
2022/10/24 07:34:43;;;;;;;11.65;2.60;;;15.10;98.00;;;;;;5034623;28;20064;-69
2022/10/24 07:37:09;;;;;;;10.45;2.58;;;15.00;98.00;;;;;;5034823;28;20053;-68
2022/10/24 07:39:34;;;;;;;12.05;2.10;;;15.00;98.00;;;;;;5034807;28;20034;-68
2022/10/24 07:42:00;;;;;;;19.08;2.92;;;15.00;98.00;;;;;;5032196;28;20056;-69
2022/10/24 07:44:26;;;;;;;16.15;3.05;;;14.90;98.00;;;;;;5035155;28;20381;-69
2022/10/24 07:46:51;;;;;;;9.23;2.70;;;14.90;98.00;;;;;;5034789;28;20439;-69
2022/10/24 07:49:17;;;;;;;9.27;2.40;;;14.90;98.00;;;;;;5034846;28;20029;-69
2022/10/24 07:51:42;;;;;;;15.40;2.55;;;15.00;98.00;;;;;;5034967;28;20456;-69
2022/10/24 07:54:08;;;;;;;13.18;2.83;;;15.00;98.00;;;;;;5034561;28;20121;-69
2022/10/24 07:56:34;;;;;;;11.25;2.55;;;14.90;98.00;;;;;;5033624;28;20322;-69
2022/10/24 07:59:00;;;;;;;10.25;2.40;;;14.90;98.00;;;;;;5038152;28;20105;-69
2022/10/24 08:01:27;;;;;;;9.63;2.63;;;15.00;98.00;;;;;;5043848;28;20060;-69
2022/10/24 08:03:53;;;;;;;8.73;2.28;;;15.00;98.00;;;;;;5058516;28;20033;-69
2022/10/24 08:06:23;;;;;;;14.02;2.72;;;15.10;98.00;;;;;;5059456;28;20100;-68
2022/10/24 08:08:49;;;;;;;8.13;2.30;;;15.30;98.00;;;;;;5058519;28;20438;-69
2022/10/24 08:11:23;;;;;;;10.77;2.10;;;15.40;98.00;;;;;;5057964;28;20135;-69
2022/10/24 08:13:52;;;;;;;6.57;1.85;;;15.50;98.00;;;;;;5058221;28;20029;-69
2022/10/24 08:16:21;;;;;;;8.73;2.33;;;15.70;98.00;;;;;;5046165;28;20329;-69
2022/10/24 08:18:50;;;;;;;9.80;2.17;;;15.90;98.00;;;;;;5058240;28;20031;-69
2022/10/24 08:21:17;;;;;;;6.07;1.42;;;16.00;97.50;;;;;;5058013;28;20162;-69
2022/10/24 08:23:47;;;;;;;7.45;2.35;;;16.10;97.50;;;;;;5058432;28;20361;-69
2022/10/24 08:26:17;;;;;;;9.30;2.05;;;16.10;98.00;;;;;;5056713;28;20100;-69
2022/10/24 08:28:45;;;;;;;9.15;2.53;;;16.10;98.00;;;;;;5058477;28;20017;-68
2022/10/24 08:31:13;;;;;;;8.63;2.00;;;15.90;98.00;;;;;;5041368;28;20053;-69
2022/10/24 08:33:39;;;;;;;6.47;2.10;;;15.80;98.00;;;;;;5058907;28;20356;-69
2022/10/24 08:36:22;;;;;;;7.35;2.10;;;15.70;98.00;;;;;;5056984;28;20032;-69
2022/10/24 08:38:47;;;;;;;14.95;3.67;;;15.60;98.00;;;;;;5041043;28;20425;-69
2022/10/24 08:41:36;;;;;;;9.77;2.40;;;15.50;98.00;;;;;;5056740;28;20045;-69
2022/10/24 08:44:18;;;;;;;11.30;2.20;;;15.50;98.00;;;;;;5057715;28;20021;-68
2022/10/24 08:47:18;;;;;;;8.20;1.95;;;15.50;98.00;;;;;;5049643;28;20037;-69
2022/10/24 08:50:03;;;;;;;9.68;2.20;;;15.40;97.90;;;;;;5057901;28;20100;-69
2022/10/24 08:52:34;;;;;;;7.35;1.92;;;15.50;97.60;;;;;;5058468;28;20051;-68
2022/10/24 08:55:46;;;;;;;12.02;2.40;;;15.50;97.00;;;;;;5056389;28;20029;-69
2022/10/24 08:58:42;;;;;;;8.15;2.08;;;15.60;96.70;;;;;;5038679;28;20045;-69
2022/10/24 09:01:28;;;;;;;11.77;2.55;;;15.60;96.30;;;;;;5036603;28;20120;-68
2022/10/24 09:04:02;;;;;;;9.23;2.08;;;15.60;96.00;;;;;;5058663;28;20414;-69
2022/10/24 09:06:31;;;;;;;6.85;1.88;;;15.60;95.60;;;;;;5058454;28;20025;-68
2022/10/24 09:09:11;;;;;;;6.55;1.98;;;15.70;95.20;;;;;;5057770;28;20053;-69
2022/10/24 09:11:58;;;;;;;7.72;2.17;;;15.70;95.20;;;;;;5056662;28;20024;-69
2022/10/24 09:14:32;;;;;;;7.03;2.10;;;15.70;95.70;;;;;;5040632;28;20418;-69
2022/10/24 09:17:16;;;;;;;10.30;1.83;;;15.60;95.80;;;;;;5058102;28;20065;-68
2022/10/24 09:19:49;;;;;;;10.10;2.10;;;15.60;95.80;;;;;;5058146;28;20103;-68
2022/10/24 09:22:16;;;;;;;8.07;2.28;;;15.60;96.50;;;;;;5058036;28;20033;-68
2022/10/24 09:24:53;;;;;;;5.50;1.80;;;15.60;96.40;;;;;;5057295;28;20049;-68
2022/10/24 09:27:31;;;;;;;7.85;2.42;;;15.60;96.50;;;;;;5057864;28;20029;-68
2022/10/24 09:29:58;;;;;;;5.90;1.65;;;15.60;96.50;;;;;;5057731;28;20369;-68
2022/10/24 09:32:29;;;;;;;7.70;1.90;;;15.60;95.80;;;;;;5057852;28;20032;-68
2022/10/24 09:35:02;;;;;;;5.35;1.73;;;15.60;95.70;;;;;;5057757;28;20078;-68
2022/10/24 09:37:40;;;;;;;6.07;1.95;;;15.60;95.30;;;;;;5057844;28;20063;-68
2022/10/24 09:40:16;;;;;;;8.05;1.80;;;15.60;95.10;;;;;;5056433;28;20025;-68
2022/10/24 09:42:52;;;;;;;5.05;1.60;;;15.60;95.40;;;;;;5037548;28;20484;-70
2022/10/24 09:45:18;;;;;;;13.13;3.65;;;15.60;95.20;;;;;;5038417;28;20080;-69
2022/10/24 09:47:55;;;;;;;10.93;1.92;;;15.50;95.70;;;;;;5039829;28;20024;-69
2022/10/24 09:50:22;;;;;;;8.07;2.58;;;15.40;95.80;;;;;;5053655;28;20021;-70
2022/10/24 09:52:51;;;;;;;7.95;1.63;;;15.30;96.00;;;;;;5057411;28;20029;-68
2022/10/24 09:55:20;;;;;;;5.00;1.52;;;15.20;95.90;;;;;;5056323;28;20036;-69
2022/10/24 09:57:46;;;;;;;5.32;1.98;;;15.20;96.30;;;;;;5039653;28;20445;-69
2022/10/24 10:00:30;;;;;;;8.15;2.05;;;14.90;97.10;;;;;;5057286;28;20036;-70
2022/10/24 10:03:03;;;;;;;6.53;1.90;;;14.40;97.90;;;;;;5057009;28;20430;-69
2022/10/24 10:05:42;;;;;;;6.80;1.80;;;14.00;98.00;;;;;;5057237;28;20025;-69
2022/10/24 10:08:18;;;;;;;8.45;2.15;;;13.80;98.00;;;;;;5057109;28;20021;-67
2022/10/24 10:10:56;;;;;;;17.23;9.43;;;13.70;97.90;;;;;;5056013;28;20418;-68
2022/10/24 10:13:23;;;;;;;6.60;3.40;;;13.50;96.80;;;;;;5057127;28;20061;-68
2022/10/24 10:15:57;;;;;;;7.00;1.52;;;13.40;96.90;;;;;;5056955;28;20025;-70
2022/10/24 10:18:32;;;;;;;6.40;2.28;;;13.30;96.60;;;;;;5056997;28;20028;-69
2022/10/24 10:21:06;;;;;;;6.35;2.40;;;13.20;94.50;;;;;;5056132;28;20086;-68
2022/10/24 10:23:35;;;;;;;6.22;2.28;;;13.20;93.60;;;;;;5056798;28;20116;-69
2022/10/24 10:26:14;;;;;;;7.07;1.80;;;13.20;94.20;;;;;;5055846;28;20017;-69
2022/10/24 10:29:15;;;;;;;6.50;2.30;;;13.20;95.40;;;;;;5039281;28;20025;-69
2022/10/24 10:32:05;;;;;;;6.72;2.05;;;13.30;93.90;;;;;;5056732;28;20025;-69
2022/10/24 10:34:37;;;;;;;5.35;1.77;;;13.30;94.30;;;;;;5048584;28;20453;-69
2022/10/24 10:37:38;;;;;;;6.78;1.90;;;13.40;95.60;;;;;;5056632;28;20483;-69
2022/10/24 10:40:36;;;;;;;8.93;1.80;;;13.50;95.10;;;;;;5054879;28;20037;-69
2022/10/24 10:43:20;;;;;;;8.10;2.10;;;13.60;97.70;;;;;;5052407;28;20084;-69
2022/10/24 10:46:02;;;;;;;;;;;13.70;96.50;;;;;;5057017;28;20017;-69
2022/10/24 10:48:46;;;;;;;5.55;1.98;;;13.90;98.00;;;;;;5056491;28;19911;-69
2022/10/24 10:51:39;;;;;;;5.65;1.20;;;14.10;98.00;;;;;;5038643;28;20029;-69
2022/10/24 10:54:23;;;;;;;5.35;1.60;;;14.30;98.00;;;;;;5056340;28;20303;-69
2022/10/24 10:56:58;;;;;;;4.43;1.55;;;14.40;98.00;;;;;;5055063;28;20029;-68
2022/10/24 10:59:39;;;;;;;4.38;1.73;;;14.50;98.00;;;;;;5056318;28;20078;-68
2022/10/24 11:02:14;;;;;;;7.70;2.05;;;14.60;98.00;;;;;;5055919;28;20142;-69
2022/10/24 11:05:14;;;;;;;5.35;1.35;;;14.70;98.00;;;;;;5056021;28;20398;-68
2022/10/24 11:08:11;;;;;;;4.75;1.50;;;14.60;98.00;;;;;;5056101;28;20065;-68
2022/10/24 11:11:02;;;;;;;5.78;1.50;;;14.50;98.00;;;;;;5046477;28;20037;-68
2022/10/24 11:14:11;;;;;;;3.70;1.33;;;14.50;98.00;;;;;;5036339;28;20364;-68
2022/10/24 11:16:38;;;;;;;5.63;1.77;;;14.50;98.00;;;;;;5055797;28;20045;-68
2022/10/24 11:19:28;;;;;;;9.18;2.03;;;14.60;98.00;;;;;;5055953;28;20025;-68
2022/10/24 11:21:57;;;;;;;9.13;2.25;;;14.70;98.00;;;;;;5055367;28;20033;-68
2022/10/24 11:24:24;;;;;;;4.68;1.40;;;14.80;98.00;;;;;;5055906;28;20024;-68
2022/10/24 11:27:08;;;;;;;3.72;1.30;;;14.90;98.00;;;;;;5054611;28;20028;-68
2022/10/24 11:29:55;;;;;;;4.35;1.10;;;15.00;98.00;;;;;;5055944;28;20021;-68
2022/10/24 11:32:32;;;;;;;3.40;1.40;;;15.10;98.00;;;;;;5055672;28;20028;-68
2022/10/24 11:35:17;;;;;;;5.40;1.48;;;15.20;97.60;;;;;;5055593;28;20025;-68
2022/10/24 11:37:48;;;;;;;2.83;1.00;;;15.30;97.60;;;;;;5055758;28;20317;-68
2022/10/24 11:40:21;;;;;;;5.18;1.40;;;15.30;97.10;;;;;;5054690;28;20028;-68
2022/10/24 11:42:51;;;;;;;6.50;1.35;;;15.40;96.20;;;;;;5038706;28;20505;-68
2022/10/24 11:45:26;;;;;;;5.55;1.92;;;15.60;96.70;;;;;;5055809;28;20029;-68
2022/10/24 11:48:04;;;;;;;3.75;1.20;;;15.80;96.00;;;;;;5055794;28;20025;-68
2022/10/24 11:50:56;;;;;;;3.50;0.80;;;15.90;95.50;;;;;;5055613;28;20084;-68
2022/10/24 11:53:28;;;;;;;16.05;1.83;;;16.00;94.20;;;;;;5050030;28;20033;-69
2022/10/24 11:56:08;;;;;;;4.10;0.95;;;16.00;95.30;;;;;;5053295;28;20449;-68
2022/10/24 11:58:58;;;;;;;5.60;1.55;;;16.00;94.00;;;;;;5035505;28;20025;-68
2022/10/24 12:01:49;;;;;;;4.30;1.00;;;16.00;93.30;;;;;;5054745;28;20056;-68
2022/10/24 12:04:52;;;;;;;4.53;1.35;;;16.20;93.70;;;;;;5054762;28;20482;-69
2022/10/24 12:07:48;;;;;;;8.25;1.60;;;16.30;93.10;;;;;;5054746;28;20036;-69
2022/10/24 12:10:29;;;;;;;3.08;0.80;;;16.50;91.70;;;;;;5054330;28;20052;-68
2022/10/24 12:13:13;;;;;;;4.35;1.10;;;16.50;90.80;;;;;;5053665;28;20029;-68
2022/10/24 12:15:39;;;;;;;3.70;0.80;;;16.50;90.90;;;;;;5055504;28;20032;-68
2022/10/24 12:18:29;;;;;;;5.60;1.00;;;16.50;89.70;;;;;;5054724;28;20041;-69
2022/10/24 12:21:00;;;;;;;5.60;0.95;;;16.50;90.60;;;;;;5055098;28;20024;-68
2022/10/24 12:23:26;;;;;;;6.82;1.08;;;16.50;89.70;;;;;;5053385;28;20038;-68
2022/10/24 12:26:17;;;;;;;5.32;1.33;;;16.50;89.40;;;;;;5054360;28;20104;-68
2022/10/24 12:29:03;;;;;;;3.92;0.82;;;16.50;90.80;;;;;;5056832;28;20407;-68
2022/10/24 12:31:31;;;;;;;4.18;1.10;;;16.60;90.10;;;;;;5052099;28;20029;-69
2022/10/24 12:34:15;;;;;;;7.20;1.55;;;16.70;90.20;;;;;;5054744;28;20112;-68
2022/10/24 12:37:10;;;;;;;3.42;1.10;;;16.90;89.60;;;;;;5055377;28;20032;-68
2022/10/24 12:39:40;;;;;;;2.92;0.93;;;17.00;86.90;;;;;;5053950;28;20120;-68
2022/10/24 12:42:35;;;;;;;3.17;0.98;;;16.90;86.70;;;;;;5054126;28;20110;-68
2022/10/24 12:45:01;;;;;;;4.03;1.40;;;16.90;87.50;;;;;;5058242;28;20121;-69
2022/10/24 12:47:40;;;;;;;4.80;0.93;;;17.00;87.80;;;;;;5057872;28;20100;-68
2022/10/24 12:50:21;;;;;;;4.28;1.10;;;16.90;87.60;;;;;;5058543;28;20017;-68
2022/10/24 12:52:49;;;;;;;4.00;1.10;;;17.10;86.60;;;;;;5057440;28;20044;-69
2022/10/24 12:55:36;;;;;;;2.50;0.90;;;17.20;86.00;;;;;;5056494;28;20033;-68
2022/10/24 12:58:19;;;;;;;4.13;1.75;;;17.30;86.90;;;;;;5057803;28;20024;-68
2022/10/24 13:00:56;;;;;;;3.67;1.15;;;17.40;84.80;;;;;;5058258;28;20020;-67
2022/10/24 13:03:55;;;;;;;4.15;1.20;;;17.40;84.90;;;;;;5057523;28;20033;-67
2022/10/24 13:06:57;;;;;;;6.05;1.40;;;17.30;86.10;;;;;;5038228;28;20349;-67
2022/10/24 13:09:39;;;;;;;6.03;1.60;;;17.40;85.00;;;;;;5057834;28;20032;-67